createdAt,value
2022-08-23T00:00:15.306Z,51.50
2022-08-23T00:00:55.217Z,51.60
2022-08-23T00:01:32.120Z,51.50
2022-08-23T00:02:17.650Z,51.60
2022-08-23T00:03:00.841Z,51.70
2022-08-23T00:03:37.261Z,51.80
2022-08-23T00:04:14.643Z,51.70
2022-08-23T00:05:08.047Z,51.70
2022-08-23T00:05:43.556Z,51.80
2022-08-23T00:06:17.343Z,51.80
2022-08-23T00:06:54.330Z,51.70
2022-08-23T00:07:29.803Z,51.70
2022-08-23T00:08:04.257Z,51.70
2022-08-23T00:08:44.820Z,51.80
2022-08-23T00:09:23.150Z,51.80
2022-08-23T00:10:00.993Z,51.90
2022-08-23T00:10:34.505Z,52.00
2022-08-23T00:11:24.634Z,52.00
2022-08-23T00:12:11.763Z,52.00
2022-08-23T00:12:47.474Z,51.90
2022-08-23T00:13:21.053Z,51.90
2022-08-23T00:13:54.250Z,51.90
2022-08-23T00:14:32.151Z,52.00
2022-08-23T00:15:08.851Z,52.20
2022-08-23T00:15:45.905Z,52.20
2022-08-23T00:16:22.125Z,52.40
2022-08-23T00:16:57.931Z,52.50
2022-08-23T00:17:34.736Z,52.60
2022-08-23T00:18:09.461Z,52.60
2022-08-23T00:18:43.217Z,52.60
2022-08-23T00:19:25.261Z,52.70
2022-08-23T00:20:00.875Z,52.70
2022-08-23T00:20:35.845Z,52.80
2022-08-23T00:21:09.421Z,52.80
2022-08-23T00:21:45.446Z,52.80
2022-08-23T00:22:19.315Z,52.90
2022-08-23T00:22:53.482Z,52.90
2022-08-23T00:23:28.740Z,53.00
2022-08-23T00:24:05.257Z,53.00
2022-08-23T00:24:41.036Z,53.10
2022-08-23T00:25:15.674Z,53.10
2022-08-23T00:25:49.651Z,53.20
2022-08-23T00:26:25.362Z,53.20
2022-08-23T00:27:05.403Z,53.30
2022-08-23T00:27:42.215Z,53.30
2022-08-23T00:28:18.618Z,53.40
2022-08-23T00:28:56.147Z,53.40
2022-08-23T00:29:32.725Z,53.50
2022-08-23T00:30:10.209Z,53.60
2022-08-23T00:30:50.676Z,53.60
2022-08-23T00:31:25.565Z,53.70
2022-08-23T00:32:49.186Z,53.60
2022-08-23T00:33:23.789Z,53.70
2022-08-23T00:33:58.847Z,53.80
2022-08-23T00:34:33.011Z,53.90
2022-08-23T00:35:11.254Z,54.00
